This is the latest recevied weather packets stored in our database for station/object K2ATL. If no packets are shown the sender has not sent any weather packets the latest 10 day(s).
| Time | Temp. | Humidity | Pressure | Rain* | Wind** | Luminosity | Snow |
|---|---|---|---|---|---|---|---|
| 1787849421 | 23.89° C | 86% | 1102.6 hPa | 0 mm | - | 322 W/m² | - |
| 1787849120 | 25° C | 84% | 1102.6 hPa | 0 mm | - | 253 W/m² | - |
| 1787848814 | 24.44° C | 84% | 1102.8 hPa | 0 mm | - | 303 W/m² | - |
| 1787848514 | 23.33° C | 84% | 1102.7 hPa | 0 mm | - | 726 W/m² | - |
| 1787848208 | 22.78° C | 87% | 1102.7 hPa | 0 mm | - | 436 W/m² | - |
| 1787847903 | 22.22° C | 88% | 1102.8 hPa | 0 mm | - | 626 W/m² | - |
| 1787847603 | 22.22° C | 90% | 1103.1 hPa | 0 mm | - | 444 W/m² | - |
| 1787847298 | 23.33° C | 87% | 1103.1 hPa | 0 mm | - | 262 W/m² | - |
| 1787846995 | 22.78° C | 87% | 1103.2 hPa | 0 mm | - | 256 W/m² | - |
| 1787846694 | 22.78° C | 91% | 1103.4 hPa | 0 mm | - | 253 W/m² | - |
| 1787846389 | 22.22° C | 92% | 1103.3 hPa | 0 mm | - | 252 W/m² | - |
| 1787846086 | 22.78° C | 93% | 1103.4 hPa | 0 mm | - | 191 W/m² | - |
| 1787845781 | 22.22° C | 93% | 1103.3 hPa | 0 mm | - | 206 W/m² | - |
| 1787845476 | 22.22° C | 93% | 1103.2 hPa | 0 mm | - | 225 W/m² | - |
| 1787845173 | 22.22° C | 94% | 1103.2 hPa | 0 mm | - | 196 W/m² | - |
| 1787844873 | 22.22° C | 94% | 1103.4 hPa | 0 mm | - | 168 W/m² | - |
| 1787844572 | 22.22° C | 94% | 1103.4 hPa | 0 mm | - | 165 W/m² | - |
| 1787844267 | 22.22° C | 93% | 1103.5 hPa | 0 mm | - | 169 W/m² | - |
| 1787843966 | 22.78° C | 92% | 1103.3 hPa | 0 mm | - | 173 W/m² | - |
| 1787843661 | 22.22° C | 89% | 1103.3 hPa | 0 mm | - | 222 W/m² | - |
| 1787843358 | 22.78° C | 92% | 1103.3 hPa | 0 mm | - | 234 W/m² | - |
| 1787843054 | 21.67° C | 93% | 1103.3 hPa | 0 mm | - | 331 W/m² | - |
| 1787842753 | 20.56° C | 94% | 1103.4 hPa | 0 mm | - | 385 W/m² | - |
| 1787842448 | 20° C | 95% | 1103.3 hPa | 0 mm | - | 414 W/m² | - |
| 1787842143 | 20° C | 97% | 1103.2 hPa | 0 mm | - | 326 W/m² | - |
* Rain latest hour (hover to see other rain measurements)
** Current wind speed in m/s (hover to see current wind gust speed)